Time;durP1;ratioP1;P1;durP2;ratioP2;P2;SDS_P1;SDS_P2;PMS_P1;PMS_P2;Temp;Humidity;BMP_temperature;BMP_pressure;BME280_temperature;BME280_humidity;BME280_pressure;Samples;Min_cycle;Max_cycle;Signal;HPM_P1;HPM_P2
2020/12/19 00:02:00;;;;;;;7.30;6.70;;;10.20;63.40;;;;;;4855681;29;21016;-77
2020/12/19 00:04:26;;;;;;;7.47;6.87;;;10.20;63.40;;;;;;4848819;29;20507;-77
2020/12/19 00:06:53;;;;;;;9.97;7.97;;;10.20;63.50;;;;;;4854000;29;20468;-77
2020/12/19 00:09:19;;;;;;;7.80;7.10;;;10.20;63.40;;;;;;4850000;29;21030;-77
2020/12/19 00:11:46;;;;;;;8.67;7.87;;;10.30;63.60;;;;;;4840810;29;20474;-77
2020/12/19 00:14:12;;;;;;;7.13;6.53;;;10.30;63.40;;;;;;4851640;29;20465;-77
2020/12/19 00:16:40;;;;;;;7.37;6.67;;;10.30;63.30;;;;;;4852640;29;20465;-77
2020/12/19 00:19:06;;;;;;;9.27;6.80;;;10.30;63.30;;;;;;4842328;29;20603;-77
2020/12/19 00:21:34;;;;;;;8.80;6.50;;;10.30;63.30;;;;;;4848252;29;20465;-78
2020/12/19 00:24:01;;;;;;;6.77;6.07;;;10.30;63.10;;;;;;4860351;29;20877;-78
2020/12/19 00:26:34;;;;;;;6.53;5.87;;;10.30;63.00;;;;;;4855142;29;20468;-79
2020/12/19 00:29:01;;;;;;;7.20;5.97;;;10.30;63.10;;;;;;4841985;29;20822;-79
2020/12/19 00:31:28;;;;;;;6.87;5.97;;;10.30;63.10;;;;;;4851023;29;20474;-79
2020/12/19 00:33:56;;;;;;;8.13;6.30;;;10.40;63.00;;;;;;4860315;29;20971;-79
2020/12/19 00:36:22;;;;;;;7.27;6.50;;;10.30;62.90;;;;;;4860231;29;21025;-78
2020/12/19 00:38:49;;;;;;;6.77;6.13;;;10.30;62.90;;;;;;4858638;29;20464;-79
2020/12/19 00:41:21;;;;;;;6.77;5.77;;;10.30;62.70;;;;;;4860310;29;20594;-78
2020/12/19 00:43:47;;;;;;;7.37;6.50;;;10.30;63.00;;;;;;4859750;29;20560;-78
2020/12/19 00:46:14;;;;;;;6.70;6.07;;;10.30;63.20;;;;;;4859585;29;20490;-78
2020/12/19 00:48:42;;;;;;;6.47;5.93;;;10.30;63.10;;;;;;4860380;29;20522;-78
2020/12/19 00:51:12;;;;;;;7.37;6.70;;;10.30;62.90;;;;;;4860147;29;20462;-78
2020/12/19 00:53:40;;;;;;;6.80;6.10;;;10.30;63.00;;;;;;4860387;29;20457;-78
2020/12/19 00:56:07;;;;;;;11.73;6.20;;;10.30;62.70;;;;;;4859878;29;20519;-79
2020/12/19 00:58:33;;;;;;;7.23;6.53;;;10.20;62.40;;;;;;4860252;29;20472;-78
2020/12/19 01:01:00;;;;;;;7.20;6.50;;;10.20;62.60;;;;;;4859851;29;20479;-78
2020/12/19 01:03:27;;;;;;;8.63;5.83;;;10.10;62.50;;;;;;4857963;29;20556;-79
2020/12/19 01:05:53;;;;;;;6.43;5.87;;;10.10;62.60;;;;;;4860242;29;20521;-78
2020/12/19 01:08:21;;;;;;;6.90;6.30;;;10.00;62.50;;;;;;4859434;29;20471;-78
2020/12/19 01:10:47;;;;;;;8.17;7.20;;;10.00;62.40;;;;;;4841761;29;20460;-77
2020/12/19 01:13:14;;;;;;;6.17;5.40;;;10.00;62.70;;;;;;4856632;29;20994;-77
2020/12/19 01:15:40;;;;;;;7.57;6.50;;;9.90;63.80;;;;;;4860505;29;20562;-76
2020/12/19 01:18:07;;;;;;;5.90;5.50;;;9.90;63.80;;;;;;4859536;29;20539;-76
2020/12/19 01:20:33;;;;;;;8.17;7.37;;;9.90;63.90;;;;;;4859874;29;20474;-77
2020/12/19 01:23:00;;;;;;;8.17;7.10;;;9.90;64.00;;;;;;4858198;29;20493;-77
2020/12/19 01:25:27;;;;;;;8.17;6.13;;;9.80;64.20;;;;;;4860017;29;20462;-76
2020/12/19 01:27:54;;;;;;;6.60;6.10;;;9.90;64.40;;;;;;4859759;29;20465;-77
2020/12/19 01:30:20;;;;;;;6.70;6.00;;;9.90;64.60;;;;;;4858057;29;20545;-77
2020/12/19 01:32:49;;;;;;;6.67;5.97;;;9.90;64.40;;;;;;4858910;29;20475;-78
2020/12/19 01:35:16;;;;;;;6.77;6.27;;;9.90;64.50;;;;;;4859907;29;20914;-78
2020/12/19 01:37:43;;;;;;;5.80;5.20;;;9.90;64.30;;;;;;4859525;29;20455;-78
2020/12/19 01:40:10;;;;;;;6.37;5.80;;;9.90;64.10;;;;;;4860102;29;20539;-78
2020/12/19 01:42:37;;;;;;;7.47;5.90;;;9.90;64.10;;;;;;4859409;29;20517;-78
2020/12/19 01:45:05;;;;;;;7.00;6.30;;;9.80;64.10;;;;;;4859865;29;20468;-78
2020/12/19 01:47:34;;;;;;;7.57;6.87;;;9.80;64.20;;;;;;4859242;29;21030;-77
2020/12/19 01:50:02;;;;;;;5.97;5.43;;;9.80;64.30;;;;;;4859712;29;20884;-77
2020/12/19 01:52:30;;;;;;;5.50;5.10;;;9.80;64.30;;;;;;4859238;29;20508;-78
2020/12/19 01:54:58;;;;;;;6.80;6.30;;;9.80;64.30;;;;;;4860088;29;20535;-78
2020/12/19 01:57:27;;;;;;;7.70;5.30;;;9.80;64.20;;;;;;4861187;29;20465;-77
2020/12/19 01:59:54;;;;;;;6.53;5.93;;;9.70;64.20;;;;;;4862500;29;20567;-77
2020/12/19 02:02:24;;;;;;;6.00;5.50;;;9.70;64.30;;;;;;4862269;29;20461;-78
2020/12/19 02:04:51;;;;;;;6.50;5.90;;;9.70;64.10;;;;;;4862819;29;20476;-77
2020/12/19 02:07:18;;;;;;;6.33;5.73;;;9.70;64.20;;;;;;4862835;29;20516;-77
2020/12/19 02:09:45;;;;;;;7.60;5.87;;;9.70;64.40;;;;;;4862621;29;20498;-77
2020/12/19 02:12:12;;;;;;;7.07;6.40;;;9.70;64.30;;;;;;4862772;29;20465;-77
2020/12/19 02:14:40;;;;;;;7.33;6.20;;;9.70;64.60;;;;;;4862668;29;20544;-78
2020/12/19 02:17:08;;;;;;;6.60;6.00;;;9.70;64.50;;;;;;4862756;29;20471;-78
2020/12/19 02:19:36;;;;;;;6.20;5.60;;;9.70;64.80;;;;;;4862015;29;20471;-78
2020/12/19 02:22:04;;;;;;;5.83;5.33;;;9.70;64.80;;;;;;4862830;29;20838;-79
2020/12/19 02:24:33;;;;;;;6.53;5.83;;;9.70;64.60;;;;;;4860681;29;20980;-78
2020/12/19 02:27:00;;;;;;;6.50;5.90;;;9.70;64.60;;;;;;4862549;29;20454;-78
2020/12/19 02:29:29;;;;;;;6.50;5.90;;;9.70;64.50;;;;;;4862119;29;20458;-77
2020/12/19 02:31:57;;;;;;;6.20;5.57;;;9.70;64.50;;;;;;4862429;29;20484;-77
2020/12/19 02:34:24;;;;;;;6.60;5.97;;;9.70;64.50;;;;;;4862133;29;20831;-78
2020/12/19 02:36:51;;;;;;;6.60;5.97;;;9.70;64.80;;;;;;4862336;29;20492;-77
2020/12/19 02:39:18;;;;;;;7.07;6.43;;;9.70;64.80;;;;;;4862166;29;20465;-76
2020/12/19 02:41:48;;;;;;;7.20;6.10;;;9.70;64.90;;;;;;4862573;29;20460;-77
2020/12/19 02:44:17;;;;;;;8.17;5.50;;;9.70;64.80;;;;;;4860369;29;20497;-78
2020/12/19 02:46:44;;;;;;;5.77;5.37;;;9.70;64.80;;;;;;4861751;29;20870;-77
2020/12/19 02:49:11;;;;;;;6.40;5.90;;;9.70;64.80;;;;;;4859628;29;20476;-78
2020/12/19 02:51:38;;;;;;;5.23;4.73;;;9.70;64.70;;;;;;4861456;29;20869;-78
2020/12/19 02:54:05;;;;;;;6.40;5.80;;;9.60;64.80;;;;;;4859364;29;20550;-78
2020/12/19 02:56:32;;;;;;;5.63;5.13;;;9.60;64.90;;;;;;4843417;29;20456;-78
2020/12/19 02:58:59;;;;;;;5.73;5.17;;;9.60;64.90;;;;;;4844413;29;20535;-80
2020/12/19 03:01:28;;;;;;;6.13;5.53;;;9.70;65.20;;;;;;4860567;29;20558;-80
2020/12/19 03:03:55;;;;;;;6.67;5.50;;;9.70;64.90;;;;;;4843744;29;20601;-81
2020/12/19 03:06:22;;;;;;;6.77;5.40;;;9.60;65.00;;;;;;4856828;29;20484;-80
2020/12/19 03:08:48;;;;;;;6.00;5.40;;;9.60;65.00;;;;;;4861799;29;20472;-80
2020/12/19 03:11:15;;;;;;;5.67;5.13;;;9.60;65.00;;;;;;4843470;29;21032;-80
2020/12/19 03:13:41;;;;;;;6.87;5.50;;;9.70;64.90;;;;;;4843252;29;20469;-81
2020/12/19 03:16:09;;;;;;;6.33;5.70;;;9.70;65.40;;;;;;4857939;29;20474;-80
2020/12/19 03:18:36;;;;;;;7.10;6.17;;;9.80;64.60;;;;;;4861734;29;20456;-81
2020/12/19 03:21:03;;;;;;;5.83;5.27;;;9.80;64.40;;;;;;4846044;29;20477;-80
2020/12/19 03:23:29;;;;;;;5.20;4.80;;;9.80;64.10;;;;;;4843238;29;20876;-80
2020/12/19 03:25:56;;;;;;;5.40;4.90;;;9.70;64.00;;;;;;4856977;29;20489;-80
2020/12/19 03:28:22;;;;;;;5.57;5.10;;;9.70;64.00;;;;;;4861459;29;20938;-80
2020/12/19 03:30:49;;;;;;;4.73;4.33;;;9.70;64.10;;;;;;4861272;29;20834;-79
2020/12/19 03:33:16;;;;;;;5.23;4.83;;;9.70;64.00;;;;;;4861309;29;20463;-79
2020/12/19 03:35:43;;;;;;;5.37;4.53;;;9.60;63.90;;;;;;4861328;29;20487;-78
2020/12/19 03:38:09;;;;;;;5.43;4.73;;;9.60;64.10;;;;;;4860705;29;20473;-79
2020/12/19 03:40:36;;;;;;;4.80;4.40;;;9.50;63.90;;;;;;4861226;29;20550;-78
2020/12/19 03:43:03;;;;;;;5.17;4.77;;;9.50;63.90;;;;;;4858947;29;21002;-78
2020/12/19 03:45:29;;;;;;;5.13;4.20;;;9.40;64.00;;;;;;4861046;29;20468;-78
2020/12/19 03:47:56;;;;;;;5.47;4.87;;;9.40;64.00;;;;;;4860720;29;20461;-79
2020/12/19 03:50:23;;;;;;;6.23;5.67;;;9.40;64.10;;;;;;4861111;29;20546;-79
2020/12/19 03:52:50;;;;;;;7.00;5.57;;;9.40;64.10;;;;;;4860894;29;20481;-79
2020/12/19 03:55:17;;;;;;;7.23;5.03;;;9.40;64.20;;;;;;4860583;29;20963;-78
2020/12/19 03:57:43;;;;;;;5.33;4.83;;;9.30;64.20;;;;;;4861028;29;20464;-77
2020/12/19 04:00:10;;;;;;;6.20;5.47;;;9.40;64.20;;;;;;4861006;29;21034;-80
2020/12/19 04:02:37;;;;;;;5.20;4.70;;;9.30;64.00;;;;;;4860516;29;20469;-80
2020/12/19 04:05:07;;;;;;;6.37;5.77;;;9.30;64.00;;;;;;4860730;29;20470;-77
2020/12/19 04:07:35;;;;;;;7.07;5.97;;;9.30;64.20;;;;;;4860438;29;20459;-79
2020/12/19 04:10:02;;;;;;;4.87;4.47;;;9.30;64.10;;;;;;4859154;29;20951;-78
2020/12/19 04:12:28;;;;;;;5.63;5.13;;;9.30;64.00;;;;;;4860475;29;20460;-79
2020/12/19 04:14:55;;;;;;;5.17;4.77;;;9.30;63.90;;;;;;4860633;29;20463;-78
2020/12/19 04:17:21;;;;;;;4.87;4.53;;;9.20;63.90;;;;;;4860175;29;20521;-78
2020/12/19 04:19:48;;;;;;;7.50;4.70;;;9.20;64.10;;;;;;4860429;29;20888;-77
2020/12/19 04:22:15;;;;;;;5.40;4.90;;;9.20;64.10;;;;;;4860417;29;20547;-78
2020/12/19 04:24:42;;;;;;;4.83;4.43;;;9.10;63.90;;;;;;4860532;29;20591;-77
2020/12/19 04:27:09;;;;;;;5.93;4.83;;;9.10;64.10;;;;;;4860447;29;20836;-78
2020/12/19 04:29:36;;;;;;;5.43;4.93;;;9.10;64.10;;;;;;4860444;29;20963;-77
2020/12/19 04:32:02;;;;;;;6.03;4.60;;;9.10;64.30;;;;;;4860048;29;20552;-79
2020/12/19 04:34:29;;;;;;;5.47;4.97;;;9.10;64.40;;;;;;4860530;29;20463;-84
2020/12/19 04:36:55;;;;;;;5.70;4.67;;;9.00;64.40;;;;;;4854415;29;20458;-84
2020/12/19 04:39:22;;;;;;;6.47;5.23;;;9.00;64.40;;;;;;4841819;29;20470;-84
2020/12/19 04:41:50;;;;;;;5.70;5.10;;;9.00;64.40;;;;;;4842070;29;20466;-84
2020/12/19 04:44:17;;;;;;;4.73;4.20;;;9.00;64.40;;;;;;4842604;29;20543;-84
2020/12/19 04:46:45;;;;;;;5.30;4.50;;;9.00;64.40;;;;;;4860114;29;20509;-84
2020/12/19 04:49:11;;;;;;;6.03;4.90;;;9.00;64.50;;;;;;4860377;29;20521;-84
2020/12/19 04:51:38;;;;;;;5.00;4.50;;;9.00;64.70;;;;;;4860229;29;20458;-83
2020/12/19 04:54:06;;;;;;;5.93;4.70;;;9.00;64.80;;;;;;4860411;29;20800;-83
2020/12/19 04:56:33;;;;;;;5.70;5.00;;;9.00;64.70;;;;;;4860098;29;20464;-83
2020/12/19 04:59:02;;;;;;;6.77;5.27;;;9.00;64.90;;;;;;4859905;29;21038;-82
2020/12/19 05:01:29;;;;;;;5.67;4.93;;;9.00;64.80;;;;;;4858982;29;20502;-82
2020/12/19 05:03:56;;;;;;;9.00;5.20;;;9.00;64.80;;;;;;4859470;29;20509;-82
2020/12/19 05:06:25;;;;;;;6.97;4.90;;;9.00;64.80;;;;;;4860002;29;20876;-82
2020/12/19 05:08:52;;;;;;;5.27;4.77;;;9.00;64.80;;;;;;4859969;29;20457;-83
2020/12/19 05:11:19;;;;;;;5.97;5.33;;;9.00;64.80;;;;;;4859835;29;20457;-81
2020/12/19 05:13:47;;;;;;;5.20;4.60;;;9.00;64.70;;;;;;4859976;29;20468;-81
2020/12/19 05:16:16;;;;;;;4.80;4.50;;;8.90;64.50;;;;;;4859795;29;20542;-82
2020/12/19 05:18:43;;;;;;;6.40;4.30;;;8.90;64.90;;;;;;4859523;29;20464;-81
2020/12/19 05:21:11;;;;;;;4.80;4.40;;;8.80;64.80;;;;;;4860124;29;20496;-81
2020/12/19 05:23:40;;;;;;;5.33;4.80;;;8.80;64.90;;;;;;4859606;29;20508;-83
2020/12/19 05:26:08;;;;;;;4.43;4.03;;;8.70;64.90;;;;;;4859930;29;20537;-82
2020/12/19 05:28:36;;;;;;;7.63;4.67;;;8.70;65.00;;;;;;4858078;29;20556;-83
2020/12/19 05:31:03;;;;;;;4.23;3.90;;;8.70;65.00;;;;;;4863093;29;20947;-82
2020/12/19 05:33:35;;;;;;;4.37;3.97;;;8.70;65.20;;;;;;4863329;29;20557;-80
2020/12/19 05:36:02;;;;;;;5.17;4.03;;;8.70;65.30;;;;;;4862778;29;20513;-80
2020/12/19 05:38:30;;;;;;;4.37;4.07;;;8.70;65.30;;;;;;4860493;29;20482;-79
2020/12/19 05:40:57;;;;;;;5.60;5.00;;;8.70;65.10;;;;;;4860895;29;20496;-79
2020/12/19 05:43:24;;;;;;;5.30;4.80;;;8.80;65.10;;;;;;4862690;29;20541;-77
2020/12/19 05:45:51;;;;;;;6.13;5.63;;;8.80;65.10;;;;;;4863422;29;20480;-77
2020/12/19 05:48:17;;;;;;;4.30;4.00;;;8.80;65.10;;;;;;4862801;29;20950;-78
2020/12/19 05:50:45;;;;;;;5.10;4.60;;;8.80;64.80;;;;;;4862314;29;20464;-77
2020/12/19 05:53:13;;;;;;;6.40;5.27;;;8.80;64.70;;;;;;4862485;29;20540;-78
2020/12/19 05:55:40;;;;;;;5.13;4.70;;;8.70;64.60;;;;;;4858389;29;20464;-78
2020/12/19 05:58:07;;;;;;;5.20;4.70;;;8.70;64.80;;;;;;4862312;29;20974;-77
2020/12/19 06:00:34;;;;;;;5.50;4.93;;;8.70;65.00;;;;;;4864081;29;20488;-78
2020/12/19 06:03:03;;;;;;;4.60;4.20;;;8.60;65.00;;;;;;4862799;29;20832;-77
2020/12/19 06:05:31;;;;;;;6.00;5.40;;;8.60;65.00;;;;;;4862716;29;20543;-77
2020/12/19 06:08:00;;;;;;;4.17;3.87;;;8.60;65.10;;;;;;4862465;29;20534;-79
2020/12/19 06:10:27;;;;;;;4.83;4.40;;;8.50;65.20;;;;;;4863013;29;20511;-79
2020/12/19 06:13:00;;;;;;;8.90;4.37;;;8.50;65.00;;;;;;4862421;29;20954;-78
2020/12/19 06:15:48;;;;;;;5.10;4.70;;;8.40;65.10;;;;;;4861579;29;20954;-77
2020/12/19 06:18:29;;;;;;;5.47;4.37;;;8.40;65.30;;;;;;4861900;29;20532;-77
2020/12/19 06:20:56;;;;;;;4.83;4.37;;;8.30;66.10;;;;;;4850338;29;21036;-79
2020/12/19 06:23:33;;;;;;;4.37;3.83;;;8.30;66.00;;;;;;4861583;29;20865;-79
2020/12/19 06:26:00;;;;;;;5.57;5.00;;;8.30;65.50;;;;;;4862454;29;20860;-79
2020/12/19 06:28:47;;;;;;;5.17;4.67;;;8.20;65.50;;;;;;4866727;29;20567;-78
2020/12/19 06:31:16;;;;;;;5.63;5.13;;;8.20;65.70;;;;;;4859274;29;20493;-78
2020/12/19 06:33:46;;;;;;;6.83;4.80;;;8.20;65.80;;;;;;4861331;29;20465;-77
2020/12/19 06:36:21;;;;;;;5.40;4.30;;;8.10;65.90;;;;;;4861738;29;20534;-78
2020/12/19 06:38:52;;;;;;;8.93;4.83;;;8.10;66.00;;;;;;4861689;29;20811;-78
2020/12/19 06:41:46;;;;;;;5.47;4.97;;;8.10;65.90;;;;;;4861491;29;20463;-78
2020/12/19 06:44:15;;;;;;;7.60;5.53;;;8.20;66.10;;;;;;4816719;29;20868;-78
2020/12/19 06:46:42;;;;;;;6.97;5.23;;;8.20;66.10;;;;;;4860114;29;20949;-76
2020/12/19 06:49:32;;;;;;;6.17;5.33;;;8.20;65.90;;;;;;4860426;29;20460;-78
2020/12/19 06:52:01;;;;;;;8.10;5.23;;;8.30;66.00;;;;;;4861520;29;20468;-77
2020/12/19 06:54:34;;;;;;;6.17;5.67;;;8.30;65.90;;;;;;4861647;29;20642;-77
2020/12/19 06:57:03;;;;;;;5.10;4.50;;;8.30;65.70;;;;;;4861180;29;20525;-79
2020/12/19 06:59:31;;;;;;;4.67;4.27;;;8.20;65.70;;;;;;4849344;29;21020;-78
2020/12/19 07:02:17;;;;;;;6.63;5.73;;;8.20;65.80;;;;;;4863194;29;20823;-78
2020/12/19 07:04:44;;;;;;;5.73;4.80;;;8.20;65.70;;;;;;4861385;29;20495;-77
2020/12/19 07:07:12;;;;;;;7.23;5.27;;;8.30;65.90;;;;;;4861631;29;20494;-76
2020/12/19 07:09:40;;;;;;;5.27;4.87;;;8.30;65.80;;;;;;4861132;29;20956;-78
2020/12/19 07:12:31;;;;;;;6.40;5.27;;;8.30;65.80;;;;;;4860921;29;20876;-77
2020/12/19 07:14:58;;;;;;;6.00;5.33;;;8.30;65.70;;;;;;4859450;29;20468;-77
2020/12/19 07:17:25;;;;;;;5.30;4.73;;;8.30;65.70;;;;;;4861534;29;20968;-78
2020/12/19 07:20:01;;;;;;;5.43;4.50;;;8.20;65.60;;;;;;4861438;29;20558;-78
2020/12/19 07:22:28;;;;;;;5.93;5.00;;;8.30;66.70;;;;;;4861440;29;20854;-78
2020/12/19 07:24:56;;;;;;;5.90;4.77;;;8.30;66.20;;;;;;4861435;29;20506;-77
2020/12/19 07:27:24;;;;;;;7.87;4.80;;;8.30;66.20;;;;;;4861449;29;20460;-77
2020/12/19 07:29:58;;;;;;;5.70;4.87;;;8.30;66.10;;;;;;4861418;29;20471;-78
2020/12/19 07:32:24;;;;;;;5.20;4.70;;;8.40;66.40;;;;;;4861286;29;21045;-77
2020/12/19 07:34:53;;;;;;;6.40;4.90;;;8.40;66.50;;;;;;4861515;29;20465;-77
2020/12/19 07:37:20;;;;;;;6.57;5.90;;;8.40;66.50;;;;;;4861355;29;20898;-77
2020/12/19 07:39:47;;;;;;;5.67;5.10;;;8.50;66.40;;;;;;4861338;29;20546;-77
2020/12/19 07:42:14;;;;;;;6.93;6.23;;;8.50;66.30;;;;;;4859618;29;20475;-77
2020/12/19 07:44:41;;;;;;;11.40;6.17;;;8.50;66.30;;;;;;4861026;29;20516;-77
2020/12/19 07:47:09;;;;;;;6.57;5.03;;;8.60;66.40;;;;;;4861089;29;20938;-77
2020/12/19 07:49:39;;;;;;;9.77;6.03;;;8.60;66.40;;;;;;4861070;29;20852;-77
2020/12/19 07:52:14;;;;;;;7.80;5.57;;;8.60;66.20;;;;;;4860695;29;20457;-78
2020/12/19 07:54:42;;;;;;;5.90;5.37;;;8.70;66.20;;;;;;4860633;29;20509;-77
2020/12/19 07:57:10;;;;;;;8.33;6.03;;;8.70;66.10;;;;;;4860839;29;20954;-78
2020/12/19 07:59:41;;;;;;;6.37;5.70;;;8.70;66.00;;;;;;4860660;29;20884;-78
2020/12/19 08:02:09;;;;;;;6.77;6.27;;;8.80;66.10;;;;;;4860802;29;20606;-78
2020/12/19 08:04:36;;;;;;;6.67;5.93;;;8.80;66.00;;;;;;4860678;29;20524;-78
2020/12/19 08:07:03;;;;;;;9.40;6.27;;;8.80;66.10;;;;;;4859304;29;20460;-78
2020/12/19 08:09:29;;;;;;;6.77;6.17;;;8.80;66.10;;;;;;4860736;29;20461;-77
2020/12/19 08:12:00;;;;;;;7.00;6.40;;;8.90;65.90;;;;;;4860769;29;20604;-77
2020/12/19 08:14:27;;;;;;;6.50;5.90;;;8.90;65.80;;;;;;4860866;29;21021;-78
2020/12/19 08:16:55;;;;;;;7.37;6.63;;;9.00;65.80;;;;;;4860752;29;20838;-78
2020/12/19 08:19:26;;;;;;;7.73;6.10;;;9.00;65.70;;;;;;4860730;29;20833;-77
2020/12/19 08:22:00;;;;;;;10.20;7.80;;;9.10;65.50;;;;;;4860949;29;20534;-77
2020/12/19 08:24:28;;;;;;;7.60;6.90;;;9.10;65.50;;;;;;4860736;29;20544;-78
2020/12/19 08:27:47;;;;;;;6.50;5.90;;;9.10;65.20;;;;;;4860585;29;20874;-78
2020/12/19 08:30:17;;;;;;;6.93;6.23;;;9.20;65.00;;;;;;4830120;29;20492;-78
2020/12/19 08:32:46;;;;;;;7.43;6.80;;;9.30;65.00;;;;;;4859046;29;20460;-78
2020/12/19 08:35:21;;;;;;;8.17;6.60;;;9.30;64.90;;;;;;4860323;29;20962;-77
2020/12/19 08:37:48;;;;;;;7.27;6.57;;;9.40;64.80;;;;;;4860837;29;20548;-77
2020/12/19 08:40:17;;;;;;;7.00;6.30;;;9.40;64.40;;;;;;4860282;29;20461;-77
2020/12/19 08:42:46;;;;;;;7.93;7.20;;;9.50;64.30;;;;;;4860306;29;20457;-77
2020/12/19 08:45:24;;;;;;;8.60;7.70;;;9.50;64.00;;;;;;4859228;29;20499;-78
2020/12/19 08:47:55;;;;;;;7.47;6.70;;;9.60;64.10;;;;;;4860406;29;20556;-77
2020/12/19 08:50:23;;;;;;;11.43;8.20;;;9.60;64.00;;;;;;4860103;29;20547;-78
2020/12/19 08:53:00;;;;;;;9.40;8.17;;;9.60;63.90;;;;;;4860448;29;20491;-78
2020/12/19 08:55:27;;;;;;;6.40;5.90;;;9.70;63.80;;;;;;4860518;29;20467;-79
2020/12/19 08:57:53;;;;;;;9.63;8.23;;;9.70;63.80;;;;;;4859446;29;20856;-79
2020/12/19 09:00:20;;;;;;;6.97;6.27;;;9.60;63.50;;;;;;4857705;29;20488;-78
2020/12/19 09:02:48;;;;;;;8.13;7.43;;;9.70;63.80;;;;;;4860191;29;20468;-77
2020/12/19 09:05:16;;;;;;;8.83;6.77;;;9.70;63.80;;;;;;4861720;29;20514;-77
2020/12/19 09:07:42;;;;;;;7.07;6.20;;;9.70;63.60;;;;;;4863663;29;20973;-78
2020/12/19 09:10:27;;;;;;;6.90;6.20;;;9.80;63.60;;;;;;4863441;29;20459;-77
2020/12/19 09:13:14;;;;;;;7.93;7.13;;;9.80;63.60;;;;;;4863513;29;20528;-77
2020/12/19 09:15:42;;;;;;;8.30;6.40;;;9.90;63.40;;;;;;4863231;29;20822;-77
2020/12/19 09:18:17;;;;;;;8.97;6.80;;;9.90;63.40;;;;;;4863455;29;20822;-77
2020/12/19 09:20:45;;;;;;;11.30;7.70;;;9.90;63.40;;;;;;4863286;29;20510;-78
2020/12/19 09:23:13;;;;;;;8.30;7.53;;;10.00;62.90;;;;;;4863680;29;20454;-77
2020/12/19 09:25:39;;;;;;;6.90;6.30;;;10.10;62.20;;;;;;4852881;29;20466;-77
2020/12/19 09:28:06;;;;;;;9.20;7.57;;;10.10;62.00;;;;;;4845584;29;20512;-77
2020/12/19 09:30:33;;;;;;;7.67;6.97;;;10.20;62.10;;;;;;4852896;29;20506;-77
2020/12/19 09:33:01;;;;;;;9.80;6.73;;;10.30;62.00;;;;;;4863509;29;20454;-78
2020/12/19 09:35:29;;;;;;;8.57;7.77;;;10.40;61.90;;;;;;4863746;29;20490;-77
2020/12/19 09:37:57;;;;;;;8.50;7.40;;;10.40;61.80;;;;;;4862798;29;20471;-78
2020/12/19 09:40:24;;;;;;;9.53;7.40;;;10.60;61.80;;;;;;4852165;29;20463;-77
2020/12/19 09:42:51;;;;;;;10.93;6.90;;;10.70;61.70;;;;;;4855525;29;20487;-77
2020/12/19 09:45:17;;;;;;;8.50;7.00;;;10.80;61.60;;;;;;4862709;29;20516;-77
2020/12/19 09:47:44;;;;;;;8.37;7.43;;;10.90;61.40;;;;;;4863091;29;20540;-77
2020/12/19 09:50:11;;;;;;;8.00;6.90;;;11.00;61.10;;;;;;4862620;29;20497;-77
2020/12/19 09:52:39;;;;;;;8.07;7.27;;;11.00;60.60;;;;;;4861442;29;20464;-77
2020/12/19 09:55:10;;;;;;;8.03;7.37;;;11.10;60.10;;;;;;4862678;29;20460;-77
2020/12/19 09:57:37;;;;;;;8.70;7.20;;;11.10;59.90;;;;;;4863129;29;20460;-78
2020/12/19 10:00:05;;;;;;;7.37;6.77;;;11.10;59.80;;;;;;4861059;29;20483;-78
2020/12/19 10:02:32;;;;;;;7.57;5.90;;;11.20;59.70;;;;;;4863033;29;20464;-78
2020/12/19 10:04:58;;;;;;;10.10;7.30;;;11.30;59.80;;;;;;4862603;29;20496;-77
2020/12/19 10:07:25;;;;;;;10.37;7.03;;;11.40;59.50;;;;;;4862795;29;20603;-77
2020/12/19 10:09:51;;;;;;;9.43;8.50;;;11.50;59.20;;;;;;4862141;29;20461;-78
2020/12/19 10:12:20;;;;;;;9.80;7.17;;;11.60;59.50;;;;;;4862457;29;20469;-77
2020/12/19 10:14:46;;;;;;;8.07;7.37;;;11.70;59.70;;;;;;4863239;29;20578;-77
2020/12/19 10:17:13;;;;;;;8.10;7.23;;;11.90;59.40;;;;;;4861516;29;20521;-77
2020/12/19 10:19:40;;;;;;;9.30;7.00;;;12.10;59.30;;;;;;4860781;29;20528;-77
2020/12/19 10:22:06;;;;;;;7.53;6.57;;;12.30;58.90;;;;;;4862376;29;20951;-77
2020/12/19 10:24:33;;;;;;;8.90;7.87;;;12.50;58.80;;;;;;4861739;29;20493;-77
2020/12/19 10:26:59;;;;;;;9.47;8.40;;;12.70;58.60;;;;;;4861792;29;20884;-78
2020/12/19 10:29:27;;;;;;;10.80;8.50;;;13.10;58.40;;;;;;4861894;29;20982;-77
2020/12/19 10:31:54;;;;;;;9.00;8.10;;;13.40;57.70;;;;;;4862623;29;20888;-81
2020/12/19 10:34:24;;;;;;;15.20;7.23;;;13.70;56.70;;;;;;4862543;29;20493;-80
2020/12/19 10:36:51;;;;;;;6.93;6.33;;;14.10;55.90;;;;;;4865870;29;21159;-80
2020/12/19 10:39:18;;;;;;;9.50;4.90;;;14.60;55.00;;;;;;4862451;29;20892;-80
2020/12/19 10:41:48;;;;;;;7.77;6.57;;;15.00;53.30;;;;;;4862399;29;20462;-79
2020/12/19 10:44:15;;;;;;;6.60;5.77;;;15.50;52.40;;;;;;4862851;29;20640;-79
2020/12/19 10:46:42;;;;;;;5.70;5.20;;;16.10;51.40;;;;;;4865346;29;20461;-80
2020/12/19 10:49:09;;;;;;;5.50;5.00;;;16.60;50.20;;;;;;4862696;29;20458;-80
2020/12/19 10:51:35;;;;;;;6.27;5.03;;;17.20;49.10;;;;;;4861445;29;20568;-78
2020/12/19 10:54:07;;;;;;;6.03;5.43;;;17.70;47.40;;;;;;4862181;29;20454;-81
2020/12/19 10:56:33;;;;;;;5.40;4.93;;;18.10;46.10;;;;;;4862108;29;20981;-78
2020/12/19 10:59:00;;;;;;;5.77;5.27;;;18.60;44.90;;;;;;4861899;29;20526;-79
2020/12/19 11:01:26;;;;;;;5.90;5.30;;;19.10;44.30;;;;;;4861749;29;20518;-79
2020/12/19 11:03:54;;;;;;;8.30;4.70;;;19.60;43.50;;;;;;4861880;29;20493;-79
2020/12/19 11:06:21;;;;;;;7.10;5.70;;;20.20;41.80;;;;;;4862057;29;20518;-79
2020/12/19 11:08:49;;;;;;;5.50;5.00;;;20.80;40.50;;;;;;4861887;29;20465;-79
2020/12/19 11:11:16;;;;;;;4.83;4.43;;;21.40;39.50;;;;;;4860710;29;20557;-79
2020/12/19 11:13:43;;;;;;;5.90;4.17;;;22.00;38.60;;;;;;4860840;29;20601;-79
2020/12/19 11:16:10;;;;;;;5.27;4.40;;;22.70;37.50;;;;;;4861086;29;21011;-79
2020/12/19 11:18:38;;;;;;;5.03;3.63;;;23.40;36.10;;;;;;4861285;29;20457;-79
2020/12/19 11:21:05;;;;;;;5.03;4.63;;;24.20;34.50;;;;;;4861118;29;20529;-79
2020/12/19 11:23:32;;;;;;;5.40;4.93;;;25.00;33.20;;;;;;4861351;29;20458;-78
2020/12/19 11:25:58;;;;;;;9.80;5.30;;;25.70;31.90;;;;;;4861172;29;20568;-78
2020/12/19 11:28:25;;;;;;;6.10;5.63;;;26.40;30.80;;;;;;4860569;29;20462;-78
2020/12/19 11:30:51;;;;;;;5.03;4.63;;;27.20;29.90;;;;;;4861789;29;20796;-77
2020/12/19 11:33:18;;;;;;;4.83;4.43;;;27.90;28.80;;;;;;4845494;29;20485;-79
2020/12/19 11:35:45;;;;;;;4.90;4.60;;;28.50;27.80;;;;;;4852915;29;20909;-79
2020/12/19 11:38:13;;;;;;;6.00;5.50;;;29.10;27.20;;;;;;4856056;29;20458;-78
2020/12/19 11:40:40;;;;;;;5.70;5.17;;;28.30;27.00;;;;;;4860742;29;20490;-79
2020/12/19 11:43:07;;;;;;;5.03;4.73;;;26.10;28.40;;;;;;4861686;29;20461;-79
2020/12/19 11:45:33;;;;;;;5.20;4.80;;;23.80;30.60;;;;;;4859587;29;20576;-77
2020/12/19 11:48:00;;;;;;;5.57;4.60;;;21.90;32.90;;;;;;4844300;29;20825;-78
2020/12/19 11:50:26;;;;;;;8.30;4.83;;;20.50;35.10;;;;;;4857467;29;20518;-80
2020/12/19 11:52:53;;;;;;;4.60;4.30;;;19.50;37.20;;;;;;4861024;29;20464;-76
2020/12/19 11:55:20;;;;;;;3.97;3.67;;;18.80;38.70;;;;;;4861158;29;20472;-79
2020/12/19 11:57:47;;;;;;;5.70;5.10;;;18.30;39.60;;;;;;4860347;29;20453;-79
2020/12/19 12:00:14;;;;;;;4.60;4.10;;;18.00;40.40;;;;;;4860878;29;20496;-77
2020/12/19 12:02:40;;;;;;;4.03;3.63;;;17.80;40.90;;;;;;4860137;29;20548;-80
2020/12/19 12:05:07;;;;;;;3.03;2.83;;;17.70;41.20;;;;;;4858645;29;20500;-78
2020/12/19 12:07:33;;;;;;;3.03;2.57;;;17.50;40.80;;;;;;4860408;29;20465;-78
2020/12/19 12:10:00;;;;;;;2.90;2.60;;;17.30;41.00;;;;;;4859823;29;20556;-77
2020/12/19 12:12:27;;;;;;;4.47;2.60;;;17.40;41.20;;;;;;4860412;29;20981;-77
2020/12/19 12:14:54;;;;;;;3.00;2.53;;;17.60;41.10;;;;;;4860973;29;20568;-78
2020/12/19 12:17:20;;;;;;;3.30;2.67;;;17.80;40.80;;;;;;4859034;29;20544;-77
2020/12/19 12:19:47;;;;;;;3.33;3.03;;;17.60;40.40;;;;;;4859218;29;20959;-80
2020/12/19 12:22:14;;;;;;;2.73;2.40;;;17.40;40.60;;;;;;4851315;29;20528;-79
2020/12/19 12:24:40;;;;;;;4.73;2.70;;;17.10;41.10;;;;;;4842085;29;20509;-80
2020/12/19 12:27:07;;;;;;;2.40;2.20;;;16.80;41.30;;;;;;4849271;29;20461;-77
2020/12/19 12:29:34;;;;;;;3.53;2.47;;;16.60;41.40;;;;;;4856818;29;20461;-78
2020/12/19 12:32:01;;;;;;;2.60;2.40;;;16.40;41.60;;;;;;4858250;29;20470;-77
2020/12/19 12:34:28;;;;;;;4.10;2.10;;;16.30;41.70;;;;;;4860282;29;20550;-77
2020/12/19 12:36:54;;;;;;;4.17;2.43;;;16.20;41.90;;;;;;4860231;29;20465;-77
2020/12/19 12:39:21;;;;;;;2.50;2.30;;;16.20;42.10;;;;;;4859893;29;20470;-78
2020/12/19 12:41:48;;;;;;;2.43;2.23;;;16.10;42.20;;;;;;4860426;29;20461;-78
2020/12/19 12:44:14;;;;;;;3.57;2.83;;;16.00;42.30;;;;;;4859857;29;20497;-77
2020/12/19 12:46:42;;;;;;;2.73;2.10;;;16.00;42.60;;;;;;4859540;29;20529;-78
2020/12/19 12:49:08;;;;;;;2.60;2.40;;;15.90;42.80;;;;;;4860245;29;20453;-78
2020/12/19 12:51:35;;;;;;;3.90;2.77;;;15.90;43.00;;;;;;4859522;29;20465;-78
2020/12/19 12:54:02;;;;;;;5.23;3.17;;;15.80;43.00;;;;;;4860167;29;20465;-77
2020/12/19 12:56:28;;;;;;;2.40;2.20;;;15.80;42.90;;;;;;4860050;29;20461;-78
2020/12/19 12:58:55;;;;;;;2.40;2.20;;;15.80;43.00;;;;;;4858609;29;20465;-78